sensor_id;sensor_type;location;lat;lon;timestamp;temperature;humidity
33328;DHT22;19692;52.998;9.116;2023-02-14T00:02:16;2.40;99.90
33328;DHT22;19692;52.998;9.116;2023-02-14T00:04:41;2.40;99.90
33328;DHT22;19692;52.998;9.116;2023-02-14T00:07:10;2.40;99.90
33328;DHT22;19692;52.998;9.116;2023-02-14T00:09:36;2.40;99.90
33328;DHT22;19692;52.998;9.116;2023-02-14T00:12:02;2.50;99.90
33328;DHT22;19692;52.998;9.116;2023-02-14T00:14:28;2.40;99.90
33328;DHT22;19692;52.998;9.116;2023-02-14T00:17:12;2.40;99.90
33328;DHT22;19692;52.998;9.116;2023-02-14T00:19:38;2.30;99.90
33328;DHT22;19692;52.998;9.116;2023-02-14T00:22:04;2.30;99.90
33328;DHT22;19692;52.998;9.116;2023-02-14T00:24:30;2.30;99.90
33328;DHT22;19692;52.998;9.116;2023-02-14T00:26:56;2.30;99.90
33328;DHT22;19692;52.998;9.116;2023-02-14T00:29:28;2.40;99.90
33328;DHT22;19692;52.998;9.116;2023-02-14T00:31:55;2.50;99.90
33328;DHT22;19692;52.998;9.116;2023-02-14T00:34:21;2.50;99.90
33328;DHT22;19692;52.998;9.116;2023-02-14T00:36:47;2.60;99.90
33328;DHT22;19692;52.998;9.116;2023-02-14T00:39:14;2.60;99.90
33328;DHT22;19692;52.998;9.116;2023-02-14T00:41:43;2.70;99.90
33328;DHT22;19692;52.998;9.116;2023-02-14T00:44:09;2.70;99.90
33328;DHT22;19692;52.998;9.116;2023-02-14T00:46:36;2.80;99.90
33328;DHT22;19692;52.998;9.116;2023-02-14T00:49:02;2.80;99.90
33328;DHT22;19692;52.998;9.116;2023-02-14T00:51:28;2.80;99.90
33328;DHT22;19692;52.998;9.116;2023-02-14T00:53:55;2.90;99.90
33328;DHT22;19692;52.998;9.116;2023-02-14T00:56:21;3.00;99.90
33328;DHT22;19692;52.998;9.116;2023-02-14T00:58:47;3.00;99.90
33328;DHT22;19692;52.998;9.116;2023-02-14T01:01:14;3.00;99.90
33328;DHT22;19692;52.998;9.116;2023-02-14T01:03:40;3.00;99.90
33328;DHT22;19692;52.998;9.116;2023-02-14T01:06:07;3.00;99.90
33328;DHT22;19692;52.998;9.116;2023-02-14T01:08:33;3.00;99.90
33328;DHT22;19692;52.998;9.116;2023-02-14T01:11:09;3.00;99.90
33328;DHT22;19692;52.998;9.116;2023-02-14T01:13:37;3.00;99.90
33328;DHT22;19692;52.998;9.116;2023-02-14T01:16:08;3.00;99.90
33328;DHT22;19692;52.998;9.116;2023-02-14T01:18:38;3.10;99.90
33328;DHT22;19692;52.998;9.116;2023-02-14T01:21:24;3.10;99.90
33328;DHT22;19692;52.998;9.116;2023-02-14T01:23:52;3.20;99.90
33328;DHT22;19692;52.998;9.116;2023-02-14T01:26:20;3.20;99.90
33328;DHT22;19692;52.998;9.116;2023-02-14T01:28:46;3.20;99.90
33328;DHT22;19692;52.998;9.116;2023-02-14T01:31:16;3.20;99.90
33328;DHT22;19692;52.998;9.116;2023-02-14T01:33:47;3.20;99.90
33328;DHT22;19692;52.998;9.116;2023-02-14T01:38:45;3.10;99.90
33328;DHT22;19692;52.998;9.116;2023-02-14T01:41:12;3.10;99.90
33328;DHT22;19692;52.998;9.116;2023-02-14T01:46:24;3.10;99.90
33328;DHT22;19692;52.998;9.116;2023-02-14T01:49:02;2.90;99.90
33328;DHT22;19692;52.998;9.116;2023-02-14T01:51:37;2.90;99.90
33328;DHT22;19692;52.998;9.116;2023-02-14T01:54:07;2.80;99.90
33328;DHT22;19692;52.998;9.116;2023-02-14T01:56:42;2.70;99.90
33328;DHT22;19692;52.998;9.116;2023-02-14T01:59:14;2.70;99.90
33328;DHT22;19692;52.998;9.116;2023-02-14T02:01:44;2.60;99.90
33328;DHT22;19692;52.998;9.116;2023-02-14T02:04:16;2.60;99.90
33328;DHT22;19692;52.998;9.116;2023-02-14T02:06:51;2.50;99.90
33328;DHT22;19692;52.998;9.116;2023-02-14T02:09:29;2.50;99.90
33328;DHT22;19692;52.998;9.116;2023-02-14T02:11:58;2.50;99.90
33328;DHT22;19692;52.998;9.116;2023-02-14T02:14:25;2.40;99.90
33328;DHT22;19692;52.998;9.116;2023-02-14T02:46:39;1.80;99.90
33328;DHT22;19692;52.998;9.116;2023-02-14T02:52:39;1.90;99.90
33328;DHT22;19692;52.998;9.116;2023-02-14T02:55:39;2.00;99.90
33328;DHT22;19692;52.998;9.116;2023-02-14T03:01:44;2.20;99.90
33328;DHT22;19692;52.998;9.116;2023-02-14T03:04:15;2.40;99.90
33328;DHT22;19692;52.998;9.116;2023-02-14T03:07:04;2.60;99.90
33328;DHT22;19692;52.998;9.116;2023-02-14T03:09:53;2.70;99.90
33328;DHT22;19692;52.998;9.116;2023-02-14T03:27:21;2.80;99.90
33328;DHT22;19692;52.998;9.116;2023-02-14T03:32:57;2.70;99.90
33328;DHT22;19692;52.998;9.116;2023-02-14T03:38:54;2.50;99.90
33328;DHT22;19692;52.998;9.116;2023-02-14T03:41:28;2.50;99.90
33328;DHT22;19692;52.998;9.116;2023-02-14T03:44:00;2.40;99.90
33328;DHT22;19692;52.998;9.116;2023-02-14T03:46:55;2.30;99.90
33328;DHT22;19692;52.998;9.116;2023-02-14T03:49:23;2.20;99.90
33328;DHT22;19692;52.998;9.116;2023-02-14T03:51:53;2.10;99.90
33328;DHT22;19692;52.998;9.116;2023-02-14T03:54:23;2.10;99.90
33328;DHT22;19692;52.998;9.116;2023-02-14T03:57:18;2.00;99.90
33328;DHT22;19692;52.998;9.116;2023-02-14T03:59:47;2.00;99.90
33328;DHT22;19692;52.998;9.116;2023-02-14T04:02:33;2.00;99.90
33328;DHT22;19692;52.998;9.116;2023-02-14T04:05:08;2.00;99.90
33328;DHT22;19692;52.998;9.116;2023-02-14T04:07:46;2.00;99.90
33328;DHT22;19692;52.998;9.116;2023-02-14T04:10:14;2.00;99.90
33328;DHT22;19692;52.998;9.116;2023-02-14T04:12:40;2.00;99.90
33328;DHT22;19692;52.998;9.116;2023-02-14T04:15:06;2.00;99.90
33328;DHT22;19692;52.998;9.116;2023-02-14T04:17:33;1.90;99.90
33328;DHT22;19692;52.998;9.116;2023-02-14T04:20:17;1.90;99.90
33328;DHT22;19692;52.998;9.116;2023-02-14T04:22:43;1.90;99.90
33328;DHT22;19692;52.998;9.116;2023-02-14T04:25:10;1.90;99.90
33328;DHT22;19692;52.998;9.116;2023-02-14T04:27:37;1.90;99.90
33328;DHT22;19692;52.998;9.116;2023-02-14T04:30:03;1.80;99.90
33328;DHT22;19692;52.998;9.116;2023-02-14T04:32:31;1.80;99.90
33328;DHT22;19692;52.998;9.116;2023-02-14T04:34:58;1.70;99.90
33328;DHT22;19692;52.998;9.116;2023-02-14T04:37:23;1.70;99.90
33328;DHT22;19692;52.998;9.116;2023-02-14T04:39:49;1.70;99.90
33328;DHT22;19692;52.998;9.116;2023-02-14T04:42:15;1.70;99.90
33328;DHT22;19692;52.998;9.116;2023-02-14T04:44:43;1.70;99.90
33328;DHT22;19692;52.998;9.116;2023-02-14T04:47:09;1.70;99.90
33328;DHT22;19692;52.998;9.116;2023-02-14T04:49:35;1.70;99.90
33328;DHT22;19692;52.998;9.116;2023-02-14T04:52:01;1.70;99.90
33328;DHT22;19692;52.998;9.116;2023-02-14T04:54:26;1.70;99.90
33328;DHT22;19692;52.998;9.116;2023-02-14T04:56:52;1.60;99.90
33328;DHT22;19692;52.998;9.116;2023-02-14T04:59:18;1.60;99.90
33328;DHT22;19692;52.998;9.116;2023-02-14T05:01:44;1.60;99.90
33328;DHT22;19692;52.998;9.116;2023-02-14T05:04:09;1.50;99.90
33328;DHT22;19692;52.998;9.116;2023-02-14T05:06:35;1.50;99.90
33328;DHT22;19692;52.998;9.116;2023-02-14T05:09:02;1.50;99.90
33328;DHT22;19692;52.998;9.116;2023-02-14T05:11:28;1.40;99.90
33328;DHT22;19692;52.998;9.116;2023-02-14T05:13:54;1.40;99.90
33328;DHT22;19692;52.998;9.116;2023-02-14T05:16:20;1.30;99.90
33328;DHT22;19692;52.998;9.116;2023-02-14T05:18:46;1.20;99.90
33328;DHT22;19692;52.998;9.116;2023-02-14T05:21:14;1.20;99.90
33328;DHT22;19692;52.998;9.116;2023-02-14T05:23:40;1.10;99.90
33328;DHT22;19692;52.998;9.116;2023-02-14T05:26:06;1.10;99.90
33328;DHT22;19692;52.998;9.116;2023-02-14T05:28:35;1.00;99.90
33328;DHT22;19692;52.998;9.116;2023-02-14T05:31:01;1.00;99.90
33328;DHT22;19692;52.998;9.116;2023-02-14T05:33:29;0.90;99.90
33328;DHT22;19692;52.998;9.116;2023-02-14T05:35:58;0.90;99.90
33328;DHT22;19692;52.998;9.116;2023-02-14T05:38:24;0.90;99.90
33328;DHT22;19692;52.998;9.116;2023-02-14T05:40:50;0.80;99.90
33328;DHT22;19692;52.998;9.116;2023-02-14T05:43:16;0.80;99.90
33328;DHT22;19692;52.998;9.116;2023-02-14T05:45:42;0.70;99.90
33328;DHT22;19692;52.998;9.116;2023-02-14T05:48:07;0.70;99.90
33328;DHT22;19692;52.998;9.116;2023-02-14T05:50:33;0.70;99.90
33328;DHT22;19692;52.998;9.116;2023-02-14T05:52:59;0.60;99.90
33328;DHT22;19692;52.998;9.116;2023-02-14T05:55:25;0.60;99.90
33328;DHT22;19692;52.998;9.116;2023-02-14T05:57:51;0.60;99.90
33328;DHT22;19692;52.998;9.116;2023-02-14T06:00:17;0.60;99.90
33328;DHT22;19692;52.998;9.116;2023-02-14T06:02:43;0.60;99.90
33328;DHT22;19692;52.998;9.116;2023-02-14T06:05:09;0.50;99.90
33328;DHT22;19692;52.998;9.116;2023-02-14T06:07:35;0.50;99.90
33328;DHT22;19692;52.998;9.116;2023-02-14T06:10:01;0.50;99.90
33328;DHT22;19692;52.998;9.116;2023-02-14T06:12:26;0.50;99.90
33328;DHT22;19692;52.998;9.116;2023-02-14T06:14:52;0.50;99.90
33328;DHT22;19692;52.998;9.116;2023-02-14T06:17:18;0.50;99.90
33328;DHT22;19692;52.998;9.116;2023-02-14T06:19:43;0.50;99.90
33328;DHT22;19692;52.998;9.116;2023-02-14T06:22:10;0.50;99.90
33328;DHT22;19692;52.998;9.116;2023-02-14T06:24:35;0.50;99.90
33328;DHT22;19692;52.998;9.116;2023-02-14T06:27:01;0.50;99.90
33328;DHT22;19692;52.998;9.116;2023-02-14T06:29:27;0.50;99.90
33328;DHT22;19692;52.998;9.116;2023-02-14T06:31:53;0.50;99.90
33328;DHT22;19692;52.998;9.116;2023-02-14T06:34:18;0.50;99.90
33328;DHT22;19692;52.998;9.116;2023-02-14T06:36:44;0.50;99.90
33328;DHT22;19692;52.998;9.116;2023-02-14T06:39:10;0.50;99.90
33328;DHT22;19692;52.998;9.116;2023-02-14T06:41:35;0.50;99.90
33328;DHT22;19692;52.998;9.116;2023-02-14T06:44:01;0.50;99.90
33328;DHT22;19692;52.998;9.116;2023-02-14T06:46:27;0.50;99.90
33328;DHT22;19692;52.998;9.116;2023-02-14T06:48:53;0.50;99.90
33328;DHT22;19692;52.998;9.116;2023-02-14T06:51:19;0.50;99.90
33328;DHT22;19692;52.998;9.116;2023-02-14T06:53:44;0.50;99.90
33328;DHT22;19692;52.998;9.116;2023-02-14T06:56:10;0.50;99.90
33328;DHT22;19692;52.998;9.116;2023-02-14T06:58:37;0.50;99.90
33328;DHT22;19692;52.998;9.116;2023-02-14T07:01:02;0.50;99.90
33328;DHT22;19692;52.998;9.116;2023-02-14T07:03:28;0.50;99.90
33328;DHT22;19692;52.998;9.116;2023-02-14T07:05:54;0.50;99.90
33328;DHT22;19692;52.998;9.116;2023-02-14T07:08:21;0.50;99.90
33328;DHT22;19692;52.998;9.116;2023-02-14T07:10:47;0.50;99.90
33328;DHT22;19692;52.998;9.116;2023-02-14T07:13:13;0.60;99.90
33328;DHT22;19692;52.998;9.116;2023-02-14T07:15:39;0.60;99.90
33328;DHT22;19692;52.998;9.116;2023-02-14T07:18:04;0.60;99.90
33328;DHT22;19692;52.998;9.116;2023-02-14T07:20:33;0.50;99.90
33328;DHT22;19692;52.998;9.116;2023-02-14T07:22:59;0.50;99.90
33328;DHT22;19692;52.998;9.116;2023-02-14T07:25:25;0.50;99.90
33328;DHT22;19692;52.998;9.116;2023-02-14T07:27:52;0.60;99.90
33328;DHT22;19692;52.998;9.116;2023-02-14T07:30:18;0.60;99.90
33328;DHT22;19692;52.998;9.116;2023-02-14T07:32:44;0.70;99.90
33328;DHT22;19692;52.998;9.116;2023-02-14T07:35:10;0.80;99.90
33328;DHT22;19692;52.998;9.116;2023-02-14T07:37:36;0.80;99.90
33328;DHT22;19692;52.998;9.116;2023-02-14T07:40:03;0.80;99.90
33328;DHT22;19692;52.998;9.116;2023-02-14T07:42:29;0.90;99.90
33328;DHT22;19692;52.998;9.116;2023-02-14T07:44:56;1.00;99.90
33328;DHT22;19692;52.998;9.116;2023-02-14T07:47:22;1.00;99.90
33328;DHT22;19692;52.998;9.116;2023-02-14T07:49:49;1.10;99.90
33328;DHT22;19692;52.998;9.116;2023-02-14T07:52:15;1.40;99.90
33328;DHT22;19692;52.998;9.116;2023-02-14T07:54:41;1.60;99.90
33328;DHT22;19692;52.998;9.116;2023-02-14T07:57:07;1.80;99.90
33328;DHT22;19692;52.998;9.116;2023-02-14T07:59:33;1.90;99.90
33328;DHT22;19692;52.998;9.116;2023-02-14T08:01:59;2.00;99.90
33328;DHT22;19692;52.998;9.116;2023-02-14T08:04:24;2.10;99.90
33328;DHT22;19692;52.998;9.116;2023-02-14T08:06:51;2.20;99.90
33328;DHT22;19692;52.998;9.116;2023-02-14T08:09:18;2.20;99.90
33328;DHT22;19692;52.998;9.116;2023-02-14T08:11:54;2.30;99.90
33328;DHT22;19692;52.998;9.116;2023-02-14T08:14:40;2.30;99.90
33328;DHT22;19692;52.998;9.116;2023-02-14T08:17:07;2.40;99.90
33328;DHT22;19692;52.998;9.116;2023-02-14T08:19:37;2.40;99.90
33328;DHT22;19692;52.998;9.116;2023-02-14T08:22:06;2.40;99.90
33328;DHT22;19692;52.998;9.116;2023-02-14T08:24:32;2.50;99.90
33328;DHT22;19692;52.998;9.116;2023-02-14T08:26:58;2.50;99.90
33328;DHT22;19692;52.998;9.116;2023-02-14T08:29:24;2.50;99.90
33328;DHT22;19692;52.998;9.116;2023-02-14T08:31:50;2.50;99.90
33328;DHT22;19692;52.998;9.116;2023-02-14T08:34:17;2.50;99.90
33328;DHT22;19692;52.998;9.116;2023-02-14T08:36:43;2.40;99.90
33328;DHT22;19692;52.998;9.116;2023-02-14T08:39:09;2.40;99.90
33328;DHT22;19692;52.998;9.116;2023-02-14T08:41:35;2.50;99.90
33328;DHT22;19692;52.998;9.116;2023-02-14T08:44:01;2.50;99.90
33328;DHT22;19692;52.998;9.116;2023-02-14T08:46:29;2.60;99.90
33328;DHT22;19692;52.998;9.116;2023-02-14T08:48:55;2.70;99.90
33328;DHT22;19692;52.998;9.116;2023-02-14T08:51:21;2.70;99.90
33328;DHT22;19692;52.998;9.116;2023-02-14T08:53:49;2.70;99.90
33328;DHT22;19692;52.998;9.116;2023-02-14T08:56:16;2.80;99.90
33328;DHT22;19692;52.998;9.116;2023-02-14T08:58:42;2.80;99.90
33328;DHT22;19692;52.998;9.116;2023-02-14T09:01:13;2.90;99.90
33328;DHT22;19692;52.998;9.116;2023-02-14T09:03:41;3.00;99.90
33328;DHT22;19692;52.998;9.116;2023-02-14T09:06:10;3.00;99.90
33328;DHT22;19692;52.998;9.116;2023-02-14T09:08:39;3.10;99.90
33328;DHT22;19692;52.998;9.116;2023-02-14T09:11:18;3.20;99.90
33328;DHT22;19692;52.998;9.116;2023-02-14T09:13:51;3.30;99.90
33328;DHT22;19692;52.998;9.116;2023-02-14T09:16:21;3.40;99.90
33328;DHT22;19692;52.998;9.116;2023-02-14T09:18:47;3.50;99.90
33328;DHT22;19692;52.998;9.116;2023-02-14T09:21:19;3.50;99.90
33328;DHT22;19692;52.998;9.116;2023-02-14T09:23:47;3.50;99.90
33328;DHT22;19692;52.998;9.116;2023-02-14T09:26:14;3.60;99.90
33328;DHT22;19692;52.998;9.116;2023-02-14T09:28:40;3.60;99.90
33328;DHT22;19692;52.998;9.116;2023-02-14T09:31:15;3.60;99.90
33328;DHT22;19692;52.998;9.116;2023-02-14T09:33:46;3.70;99.90
33328;DHT22;19692;52.998;9.116;2023-02-14T09:36:31;3.70;99.90
33328;DHT22;19692;52.998;9.116;2023-02-14T09:38:57;3.90;99.90
33328;DHT22;19692;52.998;9.116;2023-02-14T09:44:01;4.10;99.90
33328;DHT22;19692;52.998;9.116;2023-02-14T09:46:30;4.20;99.90
33328;DHT22;19692;52.998;9.116;2023-02-14T09:49:14;4.10;99.90
33328;DHT22;19692;52.998;9.116;2023-02-14T09:51:46;4.30;99.90
33328;DHT22;19692;52.998;9.116;2023-02-14T09:54:23;4.50;99.90
33328;DHT22;19692;52.998;9.116;2023-02-14T09:57:07;4.50;99.90
33328;DHT22;19692;52.998;9.116;2023-02-14T10:02:42;4.40;99.90
33328;DHT22;19692;52.998;9.116;2023-02-14T10:13:24;4.50;99.90
33328;DHT22;19692;52.998;9.116;2023-02-14T10:16:32;4.50;99.90
33328;DHT22;19692;52.998;9.116;2023-02-14T10:19:33;4.50;99.90
33328;DHT22;19692;52.998;9.116;2023-02-14T10:22:22;4.20;99.90
33328;DHT22;19692;52.998;9.116;2023-02-14T10:25:02;4.10;99.90
33328;DHT22;19692;52.998;9.116;2023-02-14T10:27:33;4.20;99.90
33328;DHT22;19692;52.998;9.116;2023-02-14T10:30:14;4.00;99.90
33328;DHT22;19692;52.998;9.116;2023-02-14T10:32:47;4.00;99.90
33328;DHT22;19692;52.998;9.116;2023-02-14T10:38:37;4.20;99.90
33328;DHT22;19692;52.998;9.116;2023-02-14T10:41:28;4.20;99.90
33328;DHT22;19692;52.998;9.116;2023-02-14T10:44:35;4.20;99.90
33328;DHT22;19692;52.998;9.116;2023-02-14T10:50:24;4.80;99.90
33328;DHT22;19692;52.998;9.116;2023-02-14T10:56:20;5.30;99.90
33328;DHT22;19692;52.998;9.116;2023-02-14T10:58:51;5.50;99.90
33328;DHT22;19692;52.998;9.116;2023-02-14T11:01:20;5.70;99.90
33328;DHT22;19692;52.998;9.116;2023-02-14T11:04:02;5.50;99.90
33328;DHT22;19692;52.998;9.116;2023-02-14T11:06:31;5.60;99.90
33328;DHT22;19692;52.998;9.116;2023-02-14T11:08:57;5.80;99.90
33328;DHT22;19692;52.998;9.116;2023-02-14T11:11:30;6.20;99.90
33328;DHT22;19692;52.998;9.116;2023-02-14T11:14:20;6.50;99.90
33328;DHT22;19692;52.998;9.116;2023-02-14T11:16:52;6.60;99.90
33328;DHT22;19692;52.998;9.116;2023-02-14T11:19:26;7.30;99.90
33328;DHT22;19692;52.998;9.116;2023-02-14T11:21:56;7.70;99.90
33328;DHT22;19692;52.998;9.116;2023-02-14T11:24:29;7.90;99.90
33328;DHT22;19692;52.998;9.116;2023-02-14T11:27:17;8.30;99.90
33328;DHT22;19692;52.998;9.116;2023-02-14T11:29:45;8.50;99.90
33328;DHT22;19692;52.998;9.116;2023-02-14T11:32:24;8.70;99.90
33328;DHT22;19692;52.998;9.116;2023-02-14T11:34:55;8.80;99.90
33328;DHT22;19692;52.998;9.116;2023-02-14T11:37:31;9.40;99.90
33328;DHT22;19692;52.998;9.116;2023-02-14T11:40:01;9.60;99.90
33328;DHT22;19692;52.998;9.116;2023-02-14T11:42:44;10.10;99.90
33328;DHT22;19692;52.998;9.116;2023-02-14T11:45:38;10.40;99.90
33328;DHT22;19692;52.998;9.116;2023-02-14T11:50:39;10.60;99.90
33328;DHT22;19692;52.998;9.116;2023-02-14T11:53:10;10.70;99.90
33328;DHT22;19692;52.998;9.116;2023-02-14T11:55:37;10.90;99.90
33328;DHT22;19692;52.998;9.116;2023-02-14T11:58:05;11.20;99.90
33328;DHT22;19692;52.998;9.116;2023-02-14T12:00:32;11.40;99.90
33328;DHT22;19692;52.998;9.116;2023-02-14T12:03:00;11.70;99.90
33328;DHT22;19692;52.998;9.116;2023-02-14T12:05:35;12.10;99.90
33328;DHT22;19692;52.998;9.116;2023-02-14T12:08:10;12.60;99.90
33328;DHT22;19692;52.998;9.116;2023-02-14T12:10:37;12.50;99.90
33328;DHT22;19692;52.998;9.116;2023-02-14T12:15:50;12.90;99.90
33328;DHT22;19692;52.998;9.116;2023-02-14T12:21:17;13.30;99.90
33328;DHT22;19692;52.998;9.116;2023-02-14T12:26:52;13.60;99.90
33328;DHT22;19692;52.998;9.116;2023-02-14T12:32:26;14.00;99.90
33328;DHT22;19692;52.998;9.116;2023-02-14T12:35:11;14.20;99.90
33328;DHT22;19692;52.998;9.116;2023-02-14T12:41:01;14.70;99.90
33328;DHT22;19692;52.998;9.116;2023-02-14T12:43:53;14.40;99.90
33328;DHT22;19692;52.998;9.116;2023-02-14T12:49:35;14.50;99.90
33328;DHT22;19692;52.998;9.116;2023-02-14T12:55:23;15.00;99.90
33328;DHT22;19692;52.998;9.116;2023-02-14T13:04:21;16.00;99.90
33328;DHT22;19692;52.998;9.116;2023-02-14T13:13:44;16.50;99.90
33328;DHT22;19692;52.998;9.116;2023-02-14T13:16:26;16.80;99.90
33328;DHT22;19692;52.998;9.116;2023-02-14T13:18:58;17.00;99.90
33328;DHT22;19692;52.998;9.116;2023-02-14T13:21:31;16.50;99.90
33328;DHT22;19692;52.998;9.116;2023-02-14T13:24:23;16.40;99.90
33328;DHT22;19692;52.998;9.116;2023-02-14T13:26:55;16.60;99.90
33328;DHT22;19692;52.998;9.116;2023-02-14T13:29:39;16.90;99.90
33328;DHT22;19692;52.998;9.116;2023-02-14T13:32:11;17.30;99.90
33328;DHT22;19692;52.998;9.116;2023-02-14T13:34:46;17.40;99.90
33328;DHT22;19692;52.998;9.116;2023-02-14T13:37:19;17.20;99.90
33328;DHT22;19692;52.998;9.116;2023-02-14T13:48:13;17.90;99.90
33328;DHT22;19692;52.998;9.116;2023-02-14T13:50:57;18.00;99.90
33328;DHT22;19692;52.998;9.116;2023-02-14T13:53:40;18.20;99.90
33328;DHT22;19692;52.998;9.116;2023-02-14T13:58:50;18.60;99.90
33328;DHT22;19692;52.998;9.116;2023-02-14T14:01:40;18.70;99.90
33328;DHT22;19692;52.998;9.116;2023-02-14T14:04:32;18.70;99.90
33328;DHT22;19692;52.998;9.116;2023-02-14T14:17:42;18.60;99.90
33328;DHT22;19692;52.998;9.116;2023-02-14T14:22:50;18.00;99.90
33328;DHT22;19692;52.998;9.116;2023-02-14T14:25:35;17.40;99.90
33328;DHT22;19692;52.998;9.116;2023-02-14T14:28:10;17.60;99.90
33328;DHT22;19692;52.998;9.116;2023-02-14T14:30:37;17.10;99.90
33328;DHT22;19692;52.998;9.116;2023-02-14T14:33:32;16.80;99.90
33328;DHT22;19692;52.998;9.116;2023-02-14T14:36:04;16.90;99.90
33328;DHT22;19692;52.998;9.116;2023-02-14T14:38:32;16.70;99.90
33328;DHT22;19692;52.998;9.116;2023-02-14T14:41:00;16.70;99.90
33328;DHT22;19692;52.998;9.116;2023-02-14T14:45:56;16.30;99.90
33328;DHT22;19692;52.998;9.116;2023-02-14T14:54:04;15.90;99.90
33328;DHT22;19692;52.998;9.116;2023-02-14T14:56:34;15.50;99.90
33328;DHT22;19692;52.998;9.116;2023-02-14T14:59:30;15.70;99.90
33328;DHT22;19692;52.998;9.116;2023-02-14T15:02:00;15.70;99.90
33328;DHT22;19692;52.998;9.116;2023-02-14T15:04:29;15.40;99.90
33328;DHT22;19692;52.998;9.116;2023-02-14T15:10:27;15.90;99.90
33328;DHT22;19692;52.998;9.116;2023-02-14T15:12:56;15.90;99.90
33328;DHT22;19692;52.998;9.116;2023-02-14T15:15:45;15.90;99.90
33328;DHT22;19692;52.998;9.116;2023-02-14T15:18:13;15.70;99.90
33328;DHT22;19692;52.998;9.116;2023-02-14T15:20:39;15.30;99.90
33328;DHT22;19692;52.998;9.116;2023-02-14T15:23:06;15.00;99.90
33328;DHT22;19692;52.998;9.116;2023-02-14T15:25:34;14.90;99.90
33328;DHT22;19692;52.998;9.116;2023-02-14T15:28:01;14.60;99.90
33328;DHT22;19692;52.998;9.116;2023-02-14T15:30:33;14.60;99.90
33328;DHT22;19692;52.998;9.116;2023-02-14T15:33:03;14.70;99.90
33328;DHT22;19692;52.998;9.116;2023-02-14T15:35:32;14.40;99.90
33328;DHT22;19692;52.998;9.116;2023-02-14T15:38:02;14.60;99.90
33328;DHT22;19692;52.998;9.116;2023-02-14T15:40:31;14.60;99.90
33328;DHT22;19692;52.998;9.116;2023-02-14T15:45:44;14.50;99.90
33328;DHT22;19692;52.998;9.116;2023-02-14T15:48:14;14.40;99.90
33328;DHT22;19692;52.998;9.116;2023-02-14T15:50:55;14.10;99.90
33328;DHT22;19692;52.998;9.116;2023-02-14T15:53:30;13.70;99.90
33328;DHT22;19692;52.998;9.116;2023-02-14T15:56:13;13.50;99.90
33328;DHT22;19692;52.998;9.116;2023-02-14T15:58:44;13.10;99.90
33328;DHT22;19692;52.998;9.116;2023-02-14T16:01:11;12.60;99.90
33328;DHT22;19692;52.998;9.116;2023-02-14T16:03:40;12.20;99.90
33328;DHT22;19692;52.998;9.116;2023-02-14T16:06:39;12.00;99.90
33328;DHT22;19692;52.998;9.116;2023-02-14T16:09:28;11.80;99.90
33328;DHT22;19692;52.998;9.116;2023-02-14T16:11:54;11.60;99.90
33328;DHT22;19692;52.998;9.116;2023-02-14T16:14:29;11.40;99.90
33328;DHT22;19692;52.998;9.116;2023-02-14T16:17:00;11.30;99.90
33328;DHT22;19692;52.998;9.116;2023-02-14T16:19:37;11.00;99.90
33328;DHT22;19692;52.998;9.116;2023-02-14T16:22:09;10.90;99.90
33328;DHT22;19692;52.998;9.116;2023-02-14T16:24:37;10.60;99.90
33328;DHT22;19692;52.998;9.116;2023-02-14T16:27:07;10.40;99.90
33328;DHT22;19692;52.998;9.116;2023-02-14T16:29:34;10.30;99.90
33328;DHT22;19692;52.998;9.116;2023-02-14T16:32:21;10.20;99.90
33328;DHT22;19692;52.998;9.116;2023-02-14T16:34:48;10.10;99.90
33328;DHT22;19692;52.998;9.116;2023-02-14T16:37:44;9.90;99.90
33328;DHT22;19692;52.998;9.116;2023-02-14T16:40:12;9.70;99.90
33328;DHT22;19692;52.998;9.116;2023-02-14T16:42:39;9.60;99.90
33328;DHT22;19692;52.998;9.116;2023-02-14T16:45:06;9.40;99.90
33328;DHT22;19692;52.998;9.116;2023-02-14T16:47:31;9.20;99.90
33328;DHT22;19692;52.998;9.116;2023-02-14T16:49:57;9.10;99.90
33328;DHT22;19692;52.998;9.116;2023-02-14T16:52:25;8.90;99.90
33328;DHT22;19692;52.998;9.116;2023-02-14T16:54:53;8.70;99.90
33328;DHT22;19692;52.998;9.116;2023-02-14T16:57:25;8.50;99.90
33328;DHT22;19692;52.998;9.116;2023-02-14T16:59:54;8.30;99.90
33328;DHT22;19692;52.998;9.116;2023-02-14T17:02:22;8.10;99.90
33328;DHT22;19692;52.998;9.116;2023-02-14T17:04:52;7.90;99.90
33328;DHT22;19692;52.998;9.116;2023-02-14T17:07:19;7.80;99.90
33328;DHT22;19692;52.998;9.116;2023-02-14T17:09:50;7.60;99.90
33328;DHT22;19692;52.998;9.116;2023-02-14T17:12:21;7.50;99.90
33328;DHT22;19692;52.998;9.116;2023-02-14T17:14:52;7.40;99.90
33328;DHT22;19692;52.998;9.116;2023-02-14T17:17:20;7.30;99.90
33328;DHT22;19692;52.998;9.116;2023-02-14T17:19:46;7.20;99.90
33328;DHT22;19692;52.998;9.116;2023-02-14T17:22:12;7.10;99.90
33328;DHT22;19692;52.998;9.116;2023-02-14T17:24:39;7.10;99.90
33328;DHT22;19692;52.998;9.116;2023-02-14T17:27:05;7.00;99.90
33328;DHT22;19692;52.998;9.116;2023-02-14T17:29:34;6.90;99.90
33328;DHT22;19692;52.998;9.116;2023-02-14T17:32:00;6.70;99.90
33328;DHT22;19692;52.998;9.116;2023-02-14T17:34:32;6.60;99.90
33328;DHT22;19692;52.998;9.116;2023-02-14T17:36:58;6.50;99.90
33328;DHT22;19692;52.998;9.116;2023-02-14T17:39:24;6.40;99.90
33328;DHT22;19692;52.998;9.116;2023-02-14T17:41:50;6.30;99.90
33328;DHT22;19692;52.998;9.116;2023-02-14T17:44:17;6.20;99.90
33328;DHT22;19692;52.998;9.116;2023-02-14T17:46:46;6.10;99.90
33328;DHT22;19692;52.998;9.116;2023-02-14T17:49:11;6.10;99.90
33328;DHT22;19692;52.998;9.116;2023-02-14T17:51:40;6.00;99.90
33328;DHT22;19692;52.998;9.116;2023-02-14T17:54:05;6.00;99.90
33328;DHT22;19692;52.998;9.116;2023-02-14T17:56:31;5.90;99.90
33328;DHT22;19692;52.998;9.116;2023-02-14T17:58:57;5.80;99.90
33328;DHT22;19692;52.998;9.116;2023-02-14T18:01:28;5.70;99.90
33328;DHT22;19692;52.998;9.116;2023-02-14T18:03:56;5.60;99.90
33328;DHT22;19692;52.998;9.116;2023-02-14T18:06:22;5.50;99.90
33328;DHT22;19692;52.998;9.116;2023-02-14T18:08:49;5.40;99.90
33328;DHT22;19692;52.998;9.116;2023-02-14T18:11:18;5.30;99.90
33328;DHT22;19692;52.998;9.116;2023-02-14T18:13:45;5.30;99.90
33328;DHT22;19692;52.998;9.116;2023-02-14T18:16:13;5.30;99.90
33328;DHT22;19692;52.998;9.116;2023-02-14T18:18:40;5.20;99.90
33328;DHT22;19692;52.998;9.116;2023-02-14T18:21:08;5.10;99.90
33328;DHT22;19692;52.998;9.116;2023-02-14T18:23:35;5.10;99.90
33328;DHT22;19692;52.998;9.116;2023-02-14T18:26:03;4.90;99.90
33328;DHT22;19692;52.998;9.116;2023-02-14T18:28:32;4.90;99.90
33328;DHT22;19692;52.998;9.116;2023-02-14T18:31:09;4.80;99.90
33328;DHT22;19692;52.998;9.116;2023-02-14T18:33:37;4.90;99.90
33328;DHT22;19692;52.998;9.116;2023-02-14T18:36:04;4.90;99.90
33328;DHT22;19692;52.998;9.116;2023-02-14T18:38:32;4.90;99.90
33328;DHT22;19692;52.998;9.116;2023-02-14T18:41:02;5.00;99.90
33328;DHT22;19692;52.998;9.116;2023-02-14T18:43:29;5.10;99.90
33328;DHT22;19692;52.998;9.116;2023-02-14T18:45:55;5.10;99.90
33328;DHT22;19692;52.998;9.116;2023-02-14T18:48:20;5.20;99.90